createdAt,value
2023-03-17T00:02:32.621Z,494.01
2023-03-17T00:07:32.591Z,490.06
2023-03-17T00:12:32.437Z,492.21
2023-03-17T00:17:32.367Z,487.58
2023-03-17T00:22:32.305Z,487.58
2023-03-17T00:27:32.226Z,482.01
2023-03-17T00:32:32.250Z,480.63
2023-03-17T00:37:32.093Z,478.24
2023-03-17T00:42:32.046Z,473.21
2023-03-17T00:47:31.971Z,477.23
2023-03-17T00:52:31.936Z,477.23
2023-03-17T00:57:31.842Z,475.21
2023-03-17T01:02:31.762Z,476.55
2023-03-17T01:07:49.432Z,477.23
2023-03-17T01:12:41.837Z,473.88
2023-03-17T01:17:41.788Z,465.69
2023-03-17T01:22:41.712Z,462.50
2023-03-17T01:27:41.647Z,462.82
2023-03-17T01:32:41.578Z,464.09
2023-03-17T01:37:41.513Z,464.09
2023-03-17T01:42:41.416Z,453.79
2023-03-17T01:47:41.380Z,451.05
2023-03-17T01:52:41.297Z,443.34
2023-03-17T01:57:41.258Z,446.28
2023-03-17T02:02:41.170Z,450.45
2023-03-17T02:07:41.113Z,452.57
2023-03-17T02:12:41.030Z,453.48
2023-03-17T02:17:40.998Z,453.48
2023-03-17T02:22:40.940Z,456.86
2023-03-17T02:27:40.840Z,454.40
2023-03-17T02:32:40.831Z,454.09
2023-03-17T02:37:40.711Z,453.48
2023-03-17T02:42:40.728Z,452.87
2023-03-17T02:47:40.597Z,455.62
2023-03-17T02:52:40.490Z,459.35
2023-03-17T02:57:40.421Z,461.23
2023-03-17T03:02:40.486Z,459.04
2023-03-17T03:07:40.332Z,463.14
2023-03-17T03:12:40.242Z,462.82
2023-03-17T03:17:40.180Z,464.73
2023-03-17T03:22:40.130Z,460.29
2023-03-17T03:27:40.064Z,454.40
2023-03-17T03:32:39.994Z,452.26
2023-03-17T03:37:39.931Z,450.15
2023-03-17T03:42:39.837Z,449.25
2023-03-17T03:47:39.786Z,446.28
2023-03-17T03:52:39.781Z,447.17
2023-03-17T03:57:39.616Z,455.93
2023-03-17T04:02:39.597Z,453.79
2023-03-17T04:07:39.496Z,452.57
2023-03-17T04:12:39.419Z,454.40
2023-03-17T04:17:39.366Z,459.66
2023-03-17T04:22:39.284Z,459.98
2023-03-17T04:27:39.240Z,455.93
2023-03-17T04:32:39.222Z,453.48
2023-03-17T04:37:39.113Z,446.57
2023-03-17T04:42:39.013Z,445.98
2023-03-17T04:47:38.975Z,441.60
2023-03-17T04:52:38.897Z,434.49
2023-03-17T04:57:38.859Z,431.43
2023-03-17T05:02:38.816Z,433.09
2023-03-17T05:07:38.702Z,431.98
2023-03-17T05:12:38.648Z,435.61
2023-03-17T05:18:11.072Z,441.60
2023-03-17T05:23:03.494Z,441.60
2023-03-17T05:28:03.548Z,441.60
2023-03-17T05:33:03.453Z,439.59
2023-03-17T05:38:03.255Z,435.33
2023-03-17T05:43:03.293Z,436.46
2023-03-17T05:48:03.103Z,430.33
2023-03-17T05:53:03.095Z,425.71
2023-03-17T05:58:02.996Z,421.19
2023-03-17T06:03:02.965Z,417.28
2023-03-17T06:08:02.882Z,411.17
2023-03-17T06:13:03.989Z,407.45
2023-03-17T06:18:02.723Z,400.19
2023-03-17T06:23:05.566Z,390.69
2023-03-17T06:28:02.876Z,385.55
2023-03-17T06:33:02.581Z,381.19
2023-03-17T06:38:02.513Z,378.62
2023-03-17T06:43:02.421Z,375.55
2023-03-17T06:48:02.341Z,374.28
2023-03-17T06:53:02.302Z,370.52
2023-03-17T06:58:02.206Z,366.02
2023-03-17T07:03:02.142Z,366.43
2023-03-17T07:08:02.043Z,360.85
2023-03-17T07:13:02.008Z,358.51
2023-03-17T07:18:01.992Z,355.06
2023-03-17T07:23:01.880Z,350.19
2023-03-17T07:28:01.787Z,344.37
2023-03-17T07:33:01.752Z,330.64
2023-03-17T07:38:01.640Z,313.17
2023-03-17T07:43:01.646Z,298.79
2023-03-17T07:48:01.540Z,284.93
2023-03-17T07:53:01.513Z,272.98
2023-03-17T07:58:01.466Z,262.61
2023-03-17T08:03:09.841Z,256.52
2023-03-17T08:08:02.278Z,251.84
2023-03-17T08:13:01.196Z,247.89
2023-03-17T08:18:01.100Z,244.42
2023-03-17T08:23:01.085Z,239.14
2023-03-17T08:28:00.985Z,237.94
2023-03-17T08:33:00.991Z,237.26
2023-03-17T08:38:00.827Z,236.41
2023-03-17T08:43:00.780Z,237.60
2023-03-17T08:48:00.795Z,239.48
2023-03-17T08:53:00.656Z,242.28
2023-03-17T08:58:00.586Z,243.88
2023-03-17T09:03:00.541Z,241.93
2023-03-17T09:08:00.471Z,246.05
2023-03-17T09:13:00.419Z,245.14
2023-03-17T09:18:00.289Z,242.46
2023-03-17T09:23:00.231Z,240.70
2023-03-17T09:28:00.163Z,234.57
2023-03-17T09:33:00.245Z,228.28
2023-03-17T09:38:00.036Z,222.01
2023-03-17T09:42:59.972Z,216.65
2023-03-17T09:47:59.893Z,212.49
2023-03-17T09:53:02.021Z,209.27
2023-03-17T09:57:59.835Z,211.54
2023-03-17T10:02:59.704Z,216.37
2023-03-17T10:07:59.609Z,223.51
2023-03-17T10:12:59.576Z,226.25
2023-03-17T10:17:59.561Z,230.34
2023-03-17T10:22:59.410Z,233.09
2023-03-17T10:27:59.341Z,236.41
2023-03-17T10:33:00.249Z,239.83
2023-03-17T10:38:13.861Z,243.88
2023-03-17T10:43:00.149Z,244.06
2023-03-17T10:47:59.069Z,247.34
2023-03-17T10:52:59.021Z,250.32
2023-03-17T10:57:58.931Z,251.84
2023-03-17T11:02:58.931Z,259.93
2023-03-17T11:07:58.842Z,267.04
2023-03-17T11:12:58.765Z,269.21
2023-03-17T11:17:58.673Z,272.08
2023-03-17T11:22:58.612Z,273.88
2023-03-17T11:27:58.538Z,280.12
2023-03-17T11:32:58.571Z,279.65
2023-03-17T11:37:58.387Z,279.18
2023-03-17T11:42:58.363Z,282.26
2023-03-17T11:47:59.917Z,283.71
2023-03-17T11:52:58.445Z,285.18
2023-03-17T11:57:58.178Z,290.67
2023-03-17T12:02:58.104Z,291.95
2023-03-17T12:07:57.985Z,292.72
2023-03-17T12:12:57.947Z,293.24
2023-03-17T12:17:57.854Z,288.90
2023-03-17T12:22:57.800Z,284.69
2023-03-17T12:27:57.705Z,280.59
2023-03-17T12:32:58.548Z,282.02
2023-03-17T12:37:57.606Z,284.44
2023-03-17T12:42:57.527Z,283.47
2023-03-17T12:47:57.494Z,285.18
2023-03-17T12:52:57.597Z,288.15
2023-03-17T12:57:57.331Z,288.65
2023-03-17T13:02:57.284Z,288.15
2023-03-17T13:07:57.198Z,287.65
2023-03-17T13:12:57.108Z,290.16
2023-03-17T13:17:57.042Z,291.95
2023-03-17T13:22:56.977Z,296.91
2023-03-17T13:27:56.912Z,298.52
2023-03-17T13:32:56.867Z,304.55
2023-03-17T13:37:56.854Z,304.83
2023-03-17T13:42:56.743Z,306.51
2023-03-17T13:47:56.641Z,308.80
2023-03-17T13:52:56.613Z,310.82
2023-03-17T13:57:56.499Z,314.65
2023-03-17T14:02:56.452Z,313.46
2023-03-17T14:07:56.387Z,315.25
2023-03-17T14:12:56.292Z,314.36
2023-03-17T14:17:56.229Z,315.55
2023-03-17T14:22:56.147Z,315.25
2023-03-17T14:27:56.106Z,319.19
2023-03-17T14:32:56.150Z,317.67
2023-03-17T14:37:55.997Z,319.81
2023-03-17T14:42:55.894Z,317.06
2023-03-17T14:47:55.842Z,314.06
2023-03-17T14:52:55.746Z,315.25
2023-03-17T14:57:55.723Z,321.05
2023-03-17T15:02:55.622Z,318.27
2023-03-17T15:07:55.560Z,324.50
2023-03-17T15:12:55.494Z,325.14
2023-03-17T15:17:55.475Z,325.14
2023-03-17T15:22:55.344Z,332.63
2023-03-17T15:27:55.298Z,332.97
2023-03-17T15:32:55.265Z,331.97
2023-03-17T15:37:55.170Z,329.33
2023-03-17T15:42:55.089Z,326.74
2023-03-17T15:47:55.049Z,325.46
2023-03-17T15:52:54.971Z,325.46
2023-03-17T15:57:55.650Z,328.03
2023-03-17T16:02:54.802Z,323.55
2023-03-17T16:07:54.740Z,322.61
2023-03-17T16:12:54.661Z,320.74
2023-03-17T16:17:54.618Z,321.36
2023-03-17T16:22:54.522Z,331.30
2023-03-17T16:27:54.463Z,328.68
2023-03-17T16:32:54.479Z,328.68
2023-03-17T16:37:54.400Z,329.99
2023-03-17T16:42:54.312Z,328.03
2023-03-17T16:47:54.398Z,326.10
2023-03-17T16:52:54.125Z,324.82
2023-03-17T16:57:54.128Z,324.50
2023-03-17T17:02:54.036Z,324.18
2023-03-17T17:07:56.053Z,324.82
2023-03-17T17:12:53.874Z,330.32
2023-03-17T17:17:53.805Z,329.99
2023-03-17T17:22:53.735Z,333.30
2023-03-17T17:27:53.732Z,332.63
2023-03-17T17:32:53.649Z,329.66
2023-03-17T17:37:53.540Z,335.32
2023-03-17T17:42:53.484Z,337.03
2023-03-17T17:47:53.440Z,336.68
2023-03-17T17:52:53.307Z,333.64
2023-03-17T17:57:53.251Z,333.97
2023-03-17T18:02:53.223Z,330.64
2023-03-17T18:07:53.128Z,331.64
2023-03-17T18:12:53.050Z,329.66
2023-03-17T18:17:52.995Z,327.38
2023-03-17T18:22:52.933Z,321.98
2023-03-17T18:27:52.831Z,318.58
2023-03-17T18:32:52.818Z,316.15
2023-03-17T18:37:52.719Z,318.58
2023-03-17T18:42:52.662Z,311.40
2023-03-17T18:47:52.565Z,313.76
2023-03-17T18:52:52.600Z,311.40
2023-03-17T18:57:52.500Z,309.95
2023-03-17T19:02:53.253Z,307.37
2023-03-17T19:07:52.322Z,307.94
2023-03-17T19:12:52.260Z,305.39
2023-03-17T19:17:52.194Z,304.27
2023-03-17T19:22:52.187Z,302.33
2023-03-17T19:27:52.040Z,300.41
2023-03-17T19:32:52.073Z,300.95
2023-03-17T19:37:51.914Z,301.23
2023-03-17T19:42:51.918Z,301.23
2023-03-17T19:47:51.759Z,298.79
2023-03-17T19:52:51.735Z,299.87
2023-03-17T19:57:51.621Z,299.05
2023-03-17T20:02:51.576Z,299.05
2023-03-17T20:07:51.523Z,295.33
2023-03-17T20:12:51.638Z,297.45
2023-03-17T20:17:51.397Z,299.60
2023-03-17T20:22:51.345Z,300.14
2023-03-17T20:27:51.256Z,300.41
2023-03-17T20:32:51.236Z,297.98
2023-03-17T20:37:51.123Z,297.45
2023-03-17T20:42:51.058Z,297.98
2023-03-17T20:47:51.073Z,299.05
2023-03-17T20:52:51.106Z,298.79
2023-03-17T20:57:50.806Z,299.87
2023-03-17T21:02:50.871Z,301.77
2023-03-17T21:07:50.708Z,302.33
2023-03-17T21:12:50.640Z,301.50
2023-03-17T21:17:50.913Z,301.23
2023-03-17T21:22:50.592Z,301.23
2023-03-17T21:27:50.459Z,300.68
2023-03-17T21:32:50.388Z,299.60
2023-03-17T21:37:50.276Z,300.41
2023-03-17T21:42:50.233Z,296.91
2023-03-17T21:47:50.146Z,296.38
2023-03-17T21:52:50.102Z,298.79
2023-03-17T21:57:50.013Z,295.59
2023-03-17T22:02:50.205Z,297.45
2023-03-17T22:07:49.885Z,297.45
2023-03-17T22:12:49.840Z,299.33
2023-03-17T22:17:50.018Z,298.25
2023-03-17T22:22:49.671Z,297.98
2023-03-17T22:27:49.653Z,297.98
2023-03-17T22:32:49.650Z,297.71
2023-03-17T22:37:49.486Z,296.91
2023-03-17T22:42:49.430Z,294.80
2023-03-17T22:47:49.345Z,294.54
2023-03-17T22:52:49.286Z,294.80
2023-03-17T22:57:49.230Z,294.02
2023-03-17T23:02:49.145Z,296.65
2023-03-17T23:07:51.290Z,300.95
2023-03-17T23:12:49.024Z,303.43
2023-03-17T23:17:48.955Z,307.37
2023-03-17T23:22:48.950Z,311.11
2023-03-17T23:27:48.859Z,316.76
2023-03-17T23:32:48.770Z,318.58
2023-03-17T23:37:48.658Z,320.43
2023-03-17T23:42:48.675Z,320.74
2023-03-17T23:47:48.554Z,321.67
2023-03-17T23:52:48.450Z,324.18
2023-03-17T23:57:48.394Z,328.35
